Airport Name : Norwich

Other Name : Norwich

ICAO : EGSH

IATA : NWI

FAA :

Latitude : 52.675833

Longitude : 1.282778

Country : United Kingdom

Local Date and Time : 10/23/2018 8:24:00 AM

 

TAF (Terminal Aerodrome Forecast)

TAF EGSH 230453Z 2306/2315 27015KT CAVOK TEMPO 2306/2315 28017G27KT BKN018

 

METAR (METeorological Aerodrome Report)

EGSH 230720Z 26014KT CAVOK 09/07 Q1027 NOSIG

EGSH 230650Z 25013KT CAVOK 09/06 Q1027 NOSIG

EGSH 230620Z 26014KT CAVOK 08/06 Q1027 NOSIG

EGSH 230550Z 26014KT CAVOK 08/06 Q1028

EGSH 230520Z 26016KT CAVOK 08/06 Q1028 NOSIG

EGSH 230450Z 26016KT CAVOK 08/06 Q1028 NOSIG

EGSH 230420Z AUTO 26017KT 9999 NCD 08/06 Q1028

EGSH 230350Z AUTO 25016KT 9999 NCD 08/06 Q1028